sensor_id;sensor_type;location;lat;lon;timestamp;temperature;humidity
22635;DHT22;11484;50.858;4.384;2023-05-17T00:02:17;12.10;99.90
22635;DHT22;11484;50.858;4.384;2023-05-17T00:04:42;12.10;99.90
22635;DHT22;11484;50.858;4.384;2023-05-17T00:07:09;12.10;99.90
22635;DHT22;11484;50.858;4.384;2023-05-17T00:09:35;12.10;99.90
22635;DHT22;11484;50.858;4.384;2023-05-17T00:12:01;12.00;99.90
22635;DHT22;11484;50.858;4.384;2023-05-17T00:14:27;12.00;99.90
22635;DHT22;11484;50.858;4.384;2023-05-17T00:16:53;12.00;99.90
22635;DHT22;11484;50.858;4.384;2023-05-17T00:19:18;11.90;99.90
22635;DHT22;11484;50.858;4.384;2023-05-17T00:21:44;11.90;99.90
22635;DHT22;11484;50.858;4.384;2023-05-17T00:24:10;11.80;99.90
22635;DHT22;11484;50.858;4.384;2023-05-17T00:26:35;11.70;99.90
22635;DHT22;11484;50.858;4.384;2023-05-17T00:29:01;11.80;99.90
22635;DHT22;11484;50.858;4.384;2023-05-17T00:31:27;11.70;99.90
22635;DHT22;11484;50.858;4.384;2023-05-17T00:33:53;11.60;99.90
22635;DHT22;11484;50.858;4.384;2023-05-17T00:36:19;11.60;99.90
22635;DHT22;11484;50.858;4.384;2023-05-17T00:38:45;11.70;99.90
22635;DHT22;11484;50.858;4.384;2023-05-17T00:41:11;11.70;99.90
22635;DHT22;11484;50.858;4.384;2023-05-17T00:43:37;11.60;99.90
22635;DHT22;11484;50.858;4.384;2023-05-17T00:46:03;11.50;99.90
22635;DHT22;11484;50.858;4.384;2023-05-17T00:48:29;11.50;99.90
22635;DHT22;11484;50.858;4.384;2023-05-17T00:50:56;11.50;99.90
22635;DHT22;11484;50.858;4.384;2023-05-17T00:53:23;11.50;99.90
22635;DHT22;11484;50.858;4.384;2023-05-17T00:55:48;11.50;99.90
22635;DHT22;11484;50.858;4.384;2023-05-17T00:58:15;11.50;99.90
22635;DHT22;11484;50.858;4.384;2023-05-17T01:00:41;11.50;99.90
22635;DHT22;11484;50.858;4.384;2023-05-17T01:03:07;11.50;99.90
22635;DHT22;11484;50.858;4.384;2023-05-17T01:05:33;11.50;99.90
22635;DHT22;11484;50.858;4.384;2023-05-17T01:07:58;11.50;99.90
22635;DHT22;11484;50.858;4.384;2023-05-17T01:13:39;11.50;99.90
22635;DHT22;11484;50.858;4.384;2023-05-17T01:18:45;11.50;99.90
22635;DHT22;11484;50.858;4.384;2023-05-17T01:21:39;11.60;99.90
22635;DHT22;11484;50.858;4.384;2023-05-17T01:24:24;11.50;99.90
22635;DHT22;11484;50.858;4.384;2023-05-17T01:26:52;11.50;99.90
22635;DHT22;11484;50.858;4.384;2023-05-17T01:29:22;11.60;99.90
22635;DHT22;11484;50.858;4.384;2023-05-17T01:31:48;11.50;99.90
22635;DHT22;11484;50.858;4.384;2023-05-17T01:34:27;11.50;99.90
22635;DHT22;11484;50.858;4.384;2023-05-17T01:36:53;11.50;99.90
22635;DHT22;11484;50.858;4.384;2023-05-17T01:39:19;11.50;99.90
22635;DHT22;11484;50.858;4.384;2023-05-17T01:41:59;11.50;99.90
22635;DHT22;11484;50.858;4.384;2023-05-17T01:44:42;11.50;99.90
22635;DHT22;11484;50.858;4.384;2023-05-17T01:47:18;11.50;99.90
22635;DHT22;11484;50.858;4.384;2023-05-17T01:49:47;11.40;99.90
22635;DHT22;11484;50.858;4.384;2023-05-17T01:52:23;11.50;99.90
22635;DHT22;11484;50.858;4.384;2023-05-17T01:55:02;11.50;99.90
22635;DHT22;11484;50.858;4.384;2023-05-17T01:57:32;11.40;99.90
22635;DHT22;11484;50.858;4.384;2023-05-17T02:00:03;11.40;99.90
22635;DHT22;11484;50.858;4.384;2023-05-17T02:02:30;11.40;99.90
22635;DHT22;11484;50.858;4.384;2023-05-17T02:04:55;11.40;99.90
22635;DHT22;11484;50.858;4.384;2023-05-17T02:07:22;11.50;99.90
22635;DHT22;11484;50.858;4.384;2023-05-17T02:09:48;11.50;99.90
22635;DHT22;11484;50.858;4.384;2023-05-17T02:12:14;11.40;99.90
22635;DHT22;11484;50.858;4.384;2023-05-17T02:14:40;11.40;99.90
22635;DHT22;11484;50.858;4.384;2023-05-17T02:17:05;11.40;99.90
22635;DHT22;11484;50.858;4.384;2023-05-17T02:19:31;11.40;99.90
22635;DHT22;11484;50.858;4.384;2023-05-17T02:21:57;11.40;99.90
22635;DHT22;11484;50.858;4.384;2023-05-17T02:24:23;11.40;99.90
22635;DHT22;11484;50.858;4.384;2023-05-17T02:26:49;11.30;99.90
22635;DHT22;11484;50.858;4.384;2023-05-17T02:29:14;11.40;99.90
22635;DHT22;11484;50.858;4.384;2023-05-17T02:31:40;11.40;99.90
22635;DHT22;11484;50.858;4.384;2023-05-17T02:34:06;11.50;99.90
22635;DHT22;11484;50.858;4.384;2023-05-17T02:36:31;11.50;99.90
22635;DHT22;11484;50.858;4.384;2023-05-17T02:38:57;11.50;99.90
22635;DHT22;11484;50.858;4.384;2023-05-17T02:41:23;11.50;99.90
22635;DHT22;11484;50.858;4.384;2023-05-17T02:43:49;11.60;99.90
22635;DHT22;11484;50.858;4.384;2023-05-17T02:46:15;11.50;99.90
22635;DHT22;11484;50.858;4.384;2023-05-17T02:48:41;11.50;99.90
22635;DHT22;11484;50.858;4.384;2023-05-17T02:51:06;11.40;99.90
22635;DHT22;11484;50.858;4.384;2023-05-17T02:53:32;11.40;99.90
22635;DHT22;11484;50.858;4.384;2023-05-17T02:55:58;11.40;99.90
22635;DHT22;11484;50.858;4.384;2023-05-17T02:58:24;11.40;99.90
22635;DHT22;11484;50.858;4.384;2023-05-17T03:00:50;11.40;99.90
22635;DHT22;11484;50.858;4.384;2023-05-17T03:03:16;11.50;99.90
22635;DHT22;11484;50.858;4.384;2023-05-17T03:05:41;11.40;99.90
22635;DHT22;11484;50.858;4.384;2023-05-17T03:08:07;11.40;99.90
22635;DHT22;11484;50.858;4.384;2023-05-17T03:10:33;11.50;99.90
22635;DHT22;11484;50.858;4.384;2023-05-17T03:12:59;11.40;99.90
22635;DHT22;11484;50.858;4.384;2023-05-17T03:15:25;11.40;99.90
22635;DHT22;11484;50.858;4.384;2023-05-17T03:17:56;11.40;99.90
22635;DHT22;11484;50.858;4.384;2023-05-17T03:20:22;11.40;99.90
22635;DHT22;11484;50.858;4.384;2023-05-17T03:22:48;11.40;99.90
22635;DHT22;11484;50.858;4.384;2023-05-17T03:25:14;11.40;99.90
22635;DHT22;11484;50.858;4.384;2023-05-17T03:27:40;11.30;99.90
22635;DHT22;11484;50.858;4.384;2023-05-17T03:30:06;11.30;99.90
22635;DHT22;11484;50.858;4.384;2023-05-17T03:32:32;11.30;99.90
22635;DHT22;11484;50.858;4.384;2023-05-17T03:34:58;11.30;99.90
22635;DHT22;11484;50.858;4.384;2023-05-17T03:37:24;11.30;99.90
22635;DHT22;11484;50.858;4.384;2023-05-17T03:39:50;11.30;99.90
22635;DHT22;11484;50.858;4.384;2023-05-17T03:42:15;11.40;99.90
22635;DHT22;11484;50.858;4.384;2023-05-17T03:44:41;11.40;99.90
22635;DHT22;11484;50.858;4.384;2023-05-17T03:47:07;11.40;99.90
22635;DHT22;11484;50.858;4.384;2023-05-17T03:49:32;11.40;99.90
22635;DHT22;11484;50.858;4.384;2023-05-17T03:51:58;11.40;99.90
22635;DHT22;11484;50.858;4.384;2023-05-17T03:54:24;11.50;99.90
22635;DHT22;11484;50.858;4.384;2023-05-17T03:56:50;11.40;99.90
22635;DHT22;11484;50.858;4.384;2023-05-17T03:59:15;11.30;99.90
22635;DHT22;11484;50.858;4.384;2023-05-17T04:01:42;11.30;99.90
22635;DHT22;11484;50.858;4.384;2023-05-17T04:04:08;11.40;99.90
22635;DHT22;11484;50.858;4.384;2023-05-17T04:06:34;11.40;99.90
22635;DHT22;11484;50.858;4.384;2023-05-17T04:09:00;11.40;99.90
22635;DHT22;11484;50.858;4.384;2023-05-17T04:11:26;11.40;99.90
22635;DHT22;11484;50.858;4.384;2023-05-17T04:13:53;11.40;99.90
22635;DHT22;11484;50.858;4.384;2023-05-17T04:16:19;11.40;99.90
22635;DHT22;11484;50.858;4.384;2023-05-17T04:18:45;11.40;99.90
22635;DHT22;11484;50.858;4.384;2023-05-17T04:21:11;11.50;99.90
22635;DHT22;11484;50.858;4.384;2023-05-17T04:23:36;11.50;99.90
22635;DHT22;11484;50.858;4.384;2023-05-17T04:26:03;11.60;99.90
22635;DHT22;11484;50.858;4.384;2023-05-17T04:28:29;11.60;99.90
22635;DHT22;11484;50.858;4.384;2023-05-17T04:30:55;11.60;99.90
22635;DHT22;11484;50.858;4.384;2023-05-17T04:33:21;11.70;99.90
22635;DHT22;11484;50.858;4.384;2023-05-17T04:35:48;11.60;99.90
22635;DHT22;11484;50.858;4.384;2023-05-17T04:38:14;11.70;99.90
22635;DHT22;11484;50.858;4.384;2023-05-17T04:40:40;11.80;99.90
22635;DHT22;11484;50.858;4.384;2023-05-17T04:43:06;11.80;99.90
22635;DHT22;11484;50.858;4.384;2023-05-17T04:45:33;11.80;99.90
22635;DHT22;11484;50.858;4.384;2023-05-17T04:47:58;11.90;99.90
22635;DHT22;11484;50.858;4.384;2023-05-17T04:50:24;11.90;99.90
22635;DHT22;11484;50.858;4.384;2023-05-17T04:52:50;11.90;99.90
22635;DHT22;11484;50.858;4.384;2023-05-17T04:55:16;12.00;99.90
22635;DHT22;11484;50.858;4.384;2023-05-17T04:57:42;12.10;99.90
22635;DHT22;11484;50.858;4.384;2023-05-17T05:00:08;12.20;99.90
22635;DHT22;11484;50.858;4.384;2023-05-17T05:02:37;12.30;99.90
22635;DHT22;11484;50.858;4.384;2023-05-17T05:05:03;12.30;99.90
22635;DHT22;11484;50.858;4.384;2023-05-17T05:07:29;12.30;99.90
22635;DHT22;11484;50.858;4.384;2023-05-17T05:09:56;12.30;99.90
22635;DHT22;11484;50.858;4.384;2023-05-17T05:12:21;12.40;99.90
22635;DHT22;11484;50.858;4.384;2023-05-17T05:14:47;12.50;99.90
22635;DHT22;11484;50.858;4.384;2023-05-17T05:17:13;12.50;99.90
22635;DHT22;11484;50.858;4.384;2023-05-17T05:19:38;12.60;99.90
22635;DHT22;11484;50.858;4.384;2023-05-17T05:22:04;12.60;99.90
22635;DHT22;11484;50.858;4.384;2023-05-17T05:24:30;12.60;99.90
22635;DHT22;11484;50.858;4.384;2023-05-17T05:26:55;12.70;99.90
22635;DHT22;11484;50.858;4.384;2023-05-17T05:29:21;12.70;99.90
22635;DHT22;11484;50.858;4.384;2023-05-17T05:31:47;12.90;99.90
22635;DHT22;11484;50.858;4.384;2023-05-17T05:34:13;13.00;99.90
22635;DHT22;11484;50.858;4.384;2023-05-17T05:36:38;13.00;99.90
22635;DHT22;11484;50.858;4.384;2023-05-17T05:39:04;13.10;99.90
22635;DHT22;11484;50.858;4.384;2023-05-17T05:41:30;13.10;99.90
22635;DHT22;11484;50.858;4.384;2023-05-17T05:43:57;13.10;99.90
22635;DHT22;11484;50.858;4.384;2023-05-17T05:46:22;13.20;99.90
22635;DHT22;11484;50.858;4.384;2023-05-17T05:48:48;13.40;99.90
22635;DHT22;11484;50.858;4.384;2023-05-17T05:51:14;13.50;99.90
22635;DHT22;11484;50.858;4.384;2023-05-17T05:53:39;13.70;99.90
22635;DHT22;11484;50.858;4.384;2023-05-17T05:56:05;13.70;99.90
22635;DHT22;11484;50.858;4.384;2023-05-17T05:58:31;13.80;99.90
22635;DHT22;11484;50.858;4.384;2023-05-17T06:00:57;13.90;99.90
22635;DHT22;11484;50.858;4.384;2023-05-17T06:03:24;14.10;99.90
22635;DHT22;11484;50.858;4.384;2023-05-17T06:05:50;14.10;99.90
22635;DHT22;11484;50.858;4.384;2023-05-17T06:08:16;14.10;99.90
22635;DHT22;11484;50.858;4.384;2023-05-17T06:10:41;14.20;99.90
22635;DHT22;11484;50.858;4.384;2023-05-17T06:13:07;14.30;99.90
22635;DHT22;11484;50.858;4.384;2023-05-17T06:15:33;14.40;99.90
22635;DHT22;11484;50.858;4.384;2023-05-17T06:17:58;14.50;99.90
22635;DHT22;11484;50.858;4.384;2023-05-17T06:20:24;14.60;99.90
22635;DHT22;11484;50.858;4.384;2023-05-17T06:22:50;14.70;99.90
22635;DHT22;11484;50.858;4.384;2023-05-17T06:25:15;14.70;99.90
22635;DHT22;11484;50.858;4.384;2023-05-17T06:27:41;14.80;99.90
22635;DHT22;11484;50.858;4.384;2023-05-17T06:30:08;14.80;99.90
22635;DHT22;11484;50.858;4.384;2023-05-17T06:32:35;14.90;99.90
22635;DHT22;11484;50.858;4.384;2023-05-17T06:35:01;14.80;99.90
22635;DHT22;11484;50.858;4.384;2023-05-17T06:37:27;14.90;99.90
22635;DHT22;11484;50.858;4.384;2023-05-17T06:39:53;15.10;99.90
22635;DHT22;11484;50.858;4.384;2023-05-17T06:42:25;15.20;99.90
22635;DHT22;11484;50.858;4.384;2023-05-17T06:44:51;15.40;99.90
22635;DHT22;11484;50.858;4.384;2023-05-17T06:47:17;15.40;99.90
22635;DHT22;11484;50.858;4.384;2023-05-17T06:49:43;15.50;99.90
22635;DHT22;11484;50.858;4.384;2023-05-17T06:52:08;15.60;99.90
22635;DHT22;11484;50.858;4.384;2023-05-17T06:54:34;15.80;99.90
22635;DHT22;11484;50.858;4.384;2023-05-17T06:57:01;16.00;99.90
22635;DHT22;11484;50.858;4.384;2023-05-17T06:59:27;16.50;99.90
22635;DHT22;11484;50.858;4.384;2023-05-17T07:01:53;17.50;99.90
22635;DHT22;11484;50.858;4.384;2023-05-17T07:04:19;18.70;99.90
22635;DHT22;11484;50.858;4.384;2023-05-17T07:06:45;20.00;99.90
22635;DHT22;11484;50.858;4.384;2023-05-17T07:09:11;21.10;99.90
22635;DHT22;11484;50.858;4.384;2023-05-17T07:11:37;22.30;98.40
22635;DHT22;11484;50.858;4.384;2023-05-17T07:14:03;22.40;96.20
22635;DHT22;11484;50.858;4.384;2023-05-17T07:16:29;22.00;95.30
22635;DHT22;11484;50.858;4.384;2023-05-17T07:18:55;21.30;95.40
22635;DHT22;11484;50.858;4.384;2023-05-17T07:21:22;20.50;96.60
22635;DHT22;11484;50.858;4.384;2023-05-17T07:23:49;19.90;97.70
22635;DHT22;11484;50.858;4.384;2023-05-17T07:26:17;19.40;98.70
22635;DHT22;11484;50.858;4.384;2023-05-17T07:28:43;19.00;99.70
22635;DHT22;11484;50.858;4.384;2023-05-17T07:31:08;18.80;99.90
22635;DHT22;11484;50.858;4.384;2023-05-17T07:33:35;18.80;99.90
22635;DHT22;11484;50.858;4.384;2023-05-17T07:36:01;18.90;99.90
22635;DHT22;11484;50.858;4.384;2023-05-17T07:38:26;19.50;99.50
22635;DHT22;11484;50.858;4.384;2023-05-17T07:40:52;20.10;99.30
22635;DHT22;11484;50.858;4.384;2023-05-17T07:43:18;21.00;97.70
22635;DHT22;11484;50.858;4.384;2023-05-17T07:45:44;21.10;96.90
22635;DHT22;11484;50.858;4.384;2023-05-17T07:48:10;20.80;96.50
22635;DHT22;11484;50.858;4.384;2023-05-17T07:50:36;20.50;97.10
22635;DHT22;11484;50.858;4.384;2023-05-17T07:53:01;21.20;96.80
22635;DHT22;11484;50.858;4.384;2023-05-17T07:55:27;22.30;94.50
22635;DHT22;11484;50.858;4.384;2023-05-17T07:57:52;22.80;92.20
22635;DHT22;11484;50.858;4.384;2023-05-17T08:00:18;22.40;92.40
22635;DHT22;11484;50.858;4.384;2023-05-17T08:02:44;22.10;91.90
22635;DHT22;11484;50.858;4.384;2023-05-17T08:05:10;21.40;92.80
22635;DHT22;11484;50.858;4.384;2023-05-17T08:07:36;21.50;93.10
22635;DHT22;11484;50.858;4.384;2023-05-17T08:10:02;22.20;92.50
22635;DHT22;11484;50.858;4.384;2023-05-17T08:12:28;23.40;89.00
22635;DHT22;11484;50.858;4.384;2023-05-17T08:14:53;24.30;83.30
22635;DHT22;11484;50.858;4.384;2023-05-17T08:17:19;23.40;83.40
22635;DHT22;11484;50.858;4.384;2023-05-17T08:19:45;22.90;84.10
22635;DHT22;11484;50.858;4.384;2023-05-17T08:22:10;22.60;86.10
22635;DHT22;11484;50.858;4.384;2023-05-17T08:24:36;23.00;84.00
22635;DHT22;11484;50.858;4.384;2023-05-17T08:27:02;22.80;83.80
22635;DHT22;11484;50.858;4.384;2023-05-17T08:29:27;22.30;85.20
22635;DHT22;11484;50.858;4.384;2023-05-17T08:31:54;23.00;85.00
22635;DHT22;11484;50.858;4.384;2023-05-17T08:34:19;24.20;78.30
22635;DHT22;11484;50.858;4.384;2023-05-17T08:36:45;23.80;78.50
22635;DHT22;11484;50.858;4.384;2023-05-17T08:39:11;24.30;79.50
22635;DHT22;11484;50.858;4.384;2023-05-17T08:41:38;25.30;76.20
22635;DHT22;11484;50.858;4.384;2023-05-17T08:44:04;25.50;75.30
22635;DHT22;11484;50.858;4.384;2023-05-17T08:46:32;25.40;69.20
22635;DHT22;11484;50.858;4.384;2023-05-17T08:48:58;24.40;69.60
22635;DHT22;11484;50.858;4.384;2023-05-17T08:51:26;24.00;71.10
22635;DHT22;11484;50.858;4.384;2023-05-17T08:53:53;24.30;68.50
22635;DHT22;11484;50.858;4.384;2023-05-17T08:56:20;23.90;67.90
22635;DHT22;11484;50.858;4.384;2023-05-17T08:58:49;23.30;69.30
22635;DHT22;11484;50.858;4.384;2023-05-17T09:01:17;22.70;72.00
22635;DHT22;11484;50.858;4.384;2023-05-17T09:03:46;22.20;75.50
22635;DHT22;11484;50.858;4.384;2023-05-17T09:06:24;22.00;77.30
22635;DHT22;11484;50.858;4.384;2023-05-17T09:08:51;21.80;77.20
22635;DHT22;11484;50.858;4.384;2023-05-17T09:11:26;21.90;76.80
22635;DHT22;11484;50.858;4.384;2023-05-17T09:13:52;22.00;76.30
22635;DHT22;11484;50.858;4.384;2023-05-17T09:16:18;21.50;76.80
22635;DHT22;11484;50.858;4.384;2023-05-17T09:18:53;21.80;77.00
22635;DHT22;11484;50.858;4.384;2023-05-17T09:21:20;23.20;72.70
22635;DHT22;11484;50.858;4.384;2023-05-17T09:23:47;24.20;69.40
22635;DHT22;11484;50.858;4.384;2023-05-17T09:26:13;25.00;65.50
22635;DHT22;11484;50.858;4.384;2023-05-17T09:28:39;24.40;66.00
22635;DHT22;11484;50.858;4.384;2023-05-17T09:31:07;25.00;64.80
22635;DHT22;11484;50.858;4.384;2023-05-17T09:33:34;25.60;64.10
22635;DHT22;11484;50.858;4.384;2023-05-17T09:36:00;26.00;61.90
22635;DHT22;11484;50.858;4.384;2023-05-17T09:38:26;26.20;59.90
22635;DHT22;11484;50.858;4.384;2023-05-17T09:40:53;26.60;59.60
22635;DHT22;11484;50.858;4.384;2023-05-17T09:43:23;26.70;57.60
22635;DHT22;11484;50.858;4.384;2023-05-17T09:45:57;26.70;57.60
22635;DHT22;11484;50.858;4.384;2023-05-17T09:48:25;26.80;56.10
22635;DHT22;11484;50.858;4.384;2023-05-17T09:50:52;27.20;55.20
22635;DHT22;11484;50.858;4.384;2023-05-17T09:53:25;27.70;54.00
22635;DHT22;11484;50.858;4.384;2023-05-17T09:55:53;27.50;53.20
22635;DHT22;11484;50.858;4.384;2023-05-17T09:58:20;26.40;54.80
22635;DHT22;11484;50.858;4.384;2023-05-17T10:00:54;25.50;55.50
22635;DHT22;11484;50.858;4.384;2023-05-17T10:03:21;25.40;57.00
22635;DHT22;11484;50.858;4.384;2023-05-17T10:05:49;26.10;55.80
22635;DHT22;11484;50.858;4.384;2023-05-17T10:08:17;26.20;53.20
22635;DHT22;11484;50.858;4.384;2023-05-17T10:10:46;25.00;53.20
22635;DHT22;11484;50.858;4.384;2023-05-17T10:13:15;24.40;56.40
22635;DHT22;11484;50.858;4.384;2023-05-17T10:15:44;24.20;55.80
22635;DHT22;11484;50.858;4.384;2023-05-17T10:18:10;24.60;56.10
22635;DHT22;11484;50.858;4.384;2023-05-17T10:20:36;24.40;55.40
22635;DHT22;11484;50.858;4.384;2023-05-17T10:23:03;24.40;56.40
22635;DHT22;11484;50.858;4.384;2023-05-17T10:25:31;23.70;55.80
22635;DHT22;11484;50.858;4.384;2023-05-17T10:27:57;23.50;56.60
22635;DHT22;11484;50.858;4.384;2023-05-17T10:30:25;23.40;56.90
22635;DHT22;11484;50.858;4.384;2023-05-17T10:32:51;22.80;57.20
22635;DHT22;11484;50.858;4.384;2023-05-17T10:35:18;22.40;58.40
22635;DHT22;11484;50.858;4.384;2023-05-17T10:37:45;22.50;59.10
22635;DHT22;11484;50.858;4.384;2023-05-17T10:40:11;22.80;58.70
22635;DHT22;11484;50.858;4.384;2023-05-17T10:42:45;22.90;56.40
22635;DHT22;11484;50.858;4.384;2023-05-17T10:45:12;22.80;54.80
22635;DHT22;11484;50.858;4.384;2023-05-17T10:47:39;22.40;55.20
22635;DHT22;11484;50.858;4.384;2023-05-17T10:50:11;22.00;55.40
22635;DHT22;11484;50.858;4.384;2023-05-17T10:52:47;21.80;56.10
22635;DHT22;11484;50.858;4.384;2023-05-17T10:55:20;21.70;56.60
22635;DHT22;11484;50.858;4.384;2023-05-17T11:00:48;21.20;57.60
22635;DHT22;11484;50.858;4.384;2023-05-17T11:03:22;20.80;56.70
22635;DHT22;11484;50.858;4.384;2023-05-17T11:06:12;20.40;57.30
22635;DHT22;11484;50.858;4.384;2023-05-17T11:09:07;20.30;58.50
22635;DHT22;11484;50.858;4.384;2023-05-17T11:11:32;19.90;57.70
22635;DHT22;11484;50.858;4.384;2023-05-17T11:14:02;19.60;59.50
22635;DHT22;11484;50.858;4.384;2023-05-17T11:16:36;19.40;60.00
22635;DHT22;11484;50.858;4.384;2023-05-17T11:19:11;19.60;60.60
22635;DHT22;11484;50.858;4.384;2023-05-17T11:21:45;19.70;59.50
22635;DHT22;11484;50.858;4.384;2023-05-17T11:24:15;19.80;59.20
22635;DHT22;11484;50.858;4.384;2023-05-17T11:26:43;19.60;59.50
22635;DHT22;11484;50.858;4.384;2023-05-17T11:29:10;19.50;59.10
22635;DHT22;11484;50.858;4.384;2023-05-17T11:31:42;19.50;59.00
22635;DHT22;11484;50.858;4.384;2023-05-17T11:34:08;19.50;59.10
22635;DHT22;11484;50.858;4.384;2023-05-17T11:36:53;19.60;59.00
22635;DHT22;11484;50.858;4.384;2023-05-17T11:39:21;19.50;59.30
22635;DHT22;11484;50.858;4.384;2023-05-17T11:41:52;19.50;58.70
22635;DHT22;11484;50.858;4.384;2023-05-17T11:44:22;19.40;59.40
22635;DHT22;11484;50.858;4.384;2023-05-17T11:47:06;19.50;59.60
22635;DHT22;11484;50.858;4.384;2023-05-17T11:49:38;19.60;58.80
22635;DHT22;11484;50.858;4.384;2023-05-17T11:52:05;19.60;59.40
22635;DHT22;11484;50.858;4.384;2023-05-17T11:54:31;19.70;59.50
22635;DHT22;11484;50.858;4.384;2023-05-17T11:56:59;19.70;59.10
22635;DHT22;11484;50.858;4.384;2023-05-17T11:59:24;19.80;59.60
22635;DHT22;11484;50.858;4.384;2023-05-17T12:01:50;19.30;58.50
22635;DHT22;11484;50.858;4.384;2023-05-17T12:04:24;18.80;60.00
22635;DHT22;11484;50.858;4.384;2023-05-17T12:06:51;18.50;60.70
22635;DHT22;11484;50.858;4.384;2023-05-17T12:09:17;18.40;61.50
22635;DHT22;11484;50.858;4.384;2023-05-17T12:11:43;18.60;61.90
22635;DHT22;11484;50.858;4.384;2023-05-17T12:14:09;18.70;61.60
22635;DHT22;11484;50.858;4.384;2023-05-17T12:16:39;19.00;62.30
22635;DHT22;11484;50.858;4.384;2023-05-17T12:19:16;19.10;61.30
22635;DHT22;11484;50.858;4.384;2023-05-17T12:21:44;19.20;61.60
22635;DHT22;11484;50.858;4.384;2023-05-17T12:24:10;19.10;60.70
22635;DHT22;11484;50.858;4.384;2023-05-17T12:26:41;19.20;59.80
22635;DHT22;11484;50.858;4.384;2023-05-17T12:29:09;19.30;59.50
22635;DHT22;11484;50.858;4.384;2023-05-17T12:31:40;19.30;60.30
22635;DHT22;11484;50.858;4.384;2023-05-17T12:34:07;19.30;61.20
22635;DHT22;11484;50.858;4.384;2023-05-17T12:36:34;19.40;60.80
22635;DHT22;11484;50.858;4.384;2023-05-17T12:39:02;19.30;61.20
22635;DHT22;11484;50.858;4.384;2023-05-17T12:41:31;19.30;60.40
22635;DHT22;11484;50.858;4.384;2023-05-17T12:43:57;19.30;60.80
22635;DHT22;11484;50.858;4.384;2023-05-17T12:46:23;19.20;60.40
22635;DHT22;11484;50.858;4.384;2023-05-17T12:48:50;19.10;59.60
22635;DHT22;11484;50.858;4.384;2023-05-17T12:51:17;19.00;59.40
22635;DHT22;11484;50.858;4.384;2023-05-17T12:53:51;19.10;59.80
22635;DHT22;11484;50.858;4.384;2023-05-17T12:56:28;19.00;60.50
22635;DHT22;11484;50.858;4.384;2023-05-17T13:01:43;19.00;61.10
22635;DHT22;11484;50.858;4.384;2023-05-17T13:04:11;19.20;61.80
22635;DHT22;11484;50.858;4.384;2023-05-17T13:06:50;18.80;60.80
22635;DHT22;11484;50.858;4.384;2023-05-17T13:09:18;18.50;61.80
22635;DHT22;11484;50.858;4.384;2023-05-17T13:11:51;18.50;61.60
22635;DHT22;11484;50.858;4.384;2023-05-17T13:17:34;19.00;61.70
22635;DHT22;11484;50.858;4.384;2023-05-17T13:20:01;19.00;60.40
22635;DHT22;11484;50.858;4.384;2023-05-17T13:22:26;18.90;62.10
22635;DHT22;11484;50.858;4.384;2023-05-17T13:24:52;18.90;60.60
22635;DHT22;11484;50.858;4.384;2023-05-17T13:27:18;18.80;60.20
22635;DHT22;11484;50.858;4.384;2023-05-17T13:29:44;18.80;60.30
22635;DHT22;11484;50.858;4.384;2023-05-17T13:32:11;18.70;61.00
22635;DHT22;11484;50.858;4.384;2023-05-17T13:34:38;18.70;60.70
22635;DHT22;11484;50.858;4.384;2023-05-17T13:37:05;18.40;61.70
22635;DHT22;11484;50.858;4.384;2023-05-17T13:39:31;18.30;61.60
22635;DHT22;11484;50.858;4.384;2023-05-17T13:42:00;18.20;62.30
22635;DHT22;11484;50.858;4.384;2023-05-17T13:44:27;18.40;62.00
22635;DHT22;11484;50.858;4.384;2023-05-17T13:46:54;18.30;61.10
22635;DHT22;11484;50.858;4.384;2023-05-17T13:49:20;18.00;61.30
22635;DHT22;11484;50.858;4.384;2023-05-17T13:51:46;17.90;62.40
22635;DHT22;11484;50.858;4.384;2023-05-17T13:54:12;18.00;62.10
22635;DHT22;11484;50.858;4.384;2023-05-17T13:56:37;17.90;62.10
22635;DHT22;11484;50.858;4.384;2023-05-17T13:59:03;18.10;63.20
22635;DHT22;11484;50.858;4.384;2023-05-17T14:01:29;18.40;63.10
22635;DHT22;11484;50.858;4.384;2023-05-17T14:03:54;18.60;61.80
22635;DHT22;11484;50.858;4.384;2023-05-17T14:06:21;18.70;61.30
22635;DHT22;11484;50.858;4.384;2023-05-17T14:08:49;18.70;61.80
22635;DHT22;11484;50.858;4.384;2023-05-17T14:11:16;18.80;61.10
22635;DHT22;11484;50.858;4.384;2023-05-17T14:13:42;19.00;61.70
22635;DHT22;11484;50.858;4.384;2023-05-17T14:16:07;19.10;61.00
22635;DHT22;11484;50.858;4.384;2023-05-17T14:18:33;19.30;61.10
22635;DHT22;11484;50.858;4.384;2023-05-17T14:20:59;19.30;60.90
22635;DHT22;11484;50.858;4.384;2023-05-17T14:23:25;19.20;60.90
22635;DHT22;11484;50.858;4.384;2023-05-17T14:25:51;19.10;61.20
22635;DHT22;11484;50.858;4.384;2023-05-17T14:28:16;19.00;60.70
22635;DHT22;11484;50.858;4.384;2023-05-17T14:30:43;18.60;60.80
22635;DHT22;11484;50.858;4.384;2023-05-17T14:33:08;18.40;62.00
22635;DHT22;11484;50.858;4.384;2023-05-17T14:35:34;18.40;61.80
22635;DHT22;11484;50.858;4.384;2023-05-17T14:38:00;18.50;61.50
22635;DHT22;11484;50.858;4.384;2023-05-17T14:40:26;18.60;61.40
22635;DHT22;11484;50.858;4.384;2023-05-17T14:42:51;18.70;60.70
22635;DHT22;11484;50.858;4.384;2023-05-17T14:45:17;18.90;60.30
22635;DHT22;11484;50.858;4.384;2023-05-17T14:47:43;19.00;60.50
22635;DHT22;11484;50.858;4.384;2023-05-17T14:50:09;19.00;59.80
22635;DHT22;11484;50.858;4.384;2023-05-17T14:52:35;18.90;60.60
22635;DHT22;11484;50.858;4.384;2023-05-17T14:55:01;19.00;59.40
22635;DHT22;11484;50.858;4.384;2023-05-17T14:57:26;19.10;59.60
22635;DHT22;11484;50.858;4.384;2023-05-17T14:59:52;19.10;60.50
22635;DHT22;11484;50.858;4.384;2023-05-17T15:02:18;19.10;60.30
22635;DHT22;11484;50.858;4.384;2023-05-17T15:04:44;18.90;60.30
22635;DHT22;11484;50.858;4.384;2023-05-17T15:07:09;18.80;61.20
22635;DHT22;11484;50.858;4.384;2023-05-17T15:09:41;18.90;61.00
22635;DHT22;11484;50.858;4.384;2023-05-17T15:12:11;18.90;61.20
22635;DHT22;11484;50.858;4.384;2023-05-17T15:14:38;18.90;61.50
22635;DHT22;11484;50.858;4.384;2023-05-17T15:17:04;18.90;61.10
22635;DHT22;11484;50.858;4.384;2023-05-17T15:19:30;18.90;60.90
22635;DHT22;11484;50.858;4.384;2023-05-17T15:21:56;18.70;61.50
22635;DHT22;11484;50.858;4.384;2023-05-17T15:24:22;18.50;60.50
22635;DHT22;11484;50.858;4.384;2023-05-17T15:26:48;18.50;61.70
22635;DHT22;11484;50.858;4.384;2023-05-17T15:29:13;18.30;62.80
22635;DHT22;11484;50.858;4.384;2023-05-17T15:31:39;18.40;62.80
22635;DHT22;11484;50.858;4.384;2023-05-17T15:34:05;18.40;61.60
22635;DHT22;11484;50.858;4.384;2023-05-17T15:36:30;18.40;61.60
22635;DHT22;11484;50.858;4.384;2023-05-17T15:38:56;18.30;62.50
22635;DHT22;11484;50.858;4.384;2023-05-17T15:41:22;18.30;63.40
22635;DHT22;11484;50.858;4.384;2023-05-17T15:43:52;18.30;64.10
22635;DHT22;11484;50.858;4.384;2023-05-17T15:46:19;18.30;63.60